< Typhoon 202019 2020 Season Typhoon 202021 >
Typhoon 202020 (ATSANI)
General InformationTrack Information on Google MapsDetailed Wind InformationForecast History on Google MapsAccess Analytics MapList of All Images || NewsDisaster Info.WeblogTrackbackTyphoon FrontTwiphoonTyphoon Now!Typhoon ImaginationJMA Disaster Info. XMLResourceGoogle EarthGE AnimationAtom FeedGeoJSON
Detalied Best Track (Time Zone = UTC)
Year Month Day Hour Lat. Long. Pressure (hPa) Wind (kt) Class Image Chart
2020 10 29 00 5.3 148.7 1004 30 2 Image Chart
2020 10 29 03 5.4 148.6 1004 30 2 Image Chart
2020 10 29 06 6.3 148.6 1004 30 2 Image Chart
2020 10 29 09 6.5 148.6 1004 30 2 Image Chart
2020 10 29 12 8.0 148.4 1000 35 3 Image Chart
2020 10 29 15 8.3 148.4 1000 35 3 Image Chart
2020 10 29 18 9.2 147.5 1000 35 3 Image Chart
2020 10 29 21 9.5 145.8 1000 35 3 Image Chart
2020 10 30 00 10.3 145.3 1000 35 3 Image Chart
2020 10 30 03 10.5 144.4 1000 35 3 Image Chart
2020 10 30 06 10.8 143.4 1000 35 3 Image Chart
2020 10 30 09 11.1 142.4 1000 35 3 Image Chart
2020 10 30 12 11.5 141.7 1002 35 3 Image Chart
2020 10 30 15 12.4 140.7 1002 35 3 Image Chart
2020 10 30 18 12.5 140.6 1000 35 3 Image Chart
2020 10 30 21 12.6 140.4 1000 35 3 Image Chart
2020 10 31 00 13.3 140.1 1000 35 3 Image Chart
2020 10 31 03 13.6 139.4 1000 35 3 Image Chart
2020 10 31 06 14.1 138.7 1000 35 3 Image Chart
2020 10 31 09 14.4 138.1 1000 35 3 Image Chart
2020 10 31 12 14.4 137.6 1000 35 3 Image Chart
2020 10 31 15 14.6 136.7 1000 35 3 Image Chart
2020 10 31 18 14.9 136.1 998 40 3 Image Chart
2020 10 31 21 15.2 135.3 998 40 3 Image Chart
2020 11 1 00 15.7 134.3 998 40 3 Image Chart
2020 11 1 03 15.8 133.6 998 35 3 Image Chart
2020 11 1 06 16.0 132.5 998 35 3 Image Chart
2020 11 1 09 16.4 132.1 1000 35 3 Image Chart
2020 11 1 12 16.4 131.7 1000 35 3 Image Chart
2020 11 1 15 16.4 131.7 1000 35 3 Image Chart
2020 11 1 18 16.5 130.8 1000 35 3 Image Chart
2020 11 1 21 16.5 130.7 1002 35 3 Image Chart
2020 11 2 00 17.9 127.6 1002 35 3 Image Chart
2020 11 2 03 18.2 127.6 1002 35 3 Image Chart
2020 11 2 06 19.3 128.4 1000 35 3 Image Chart
2020 11 2 09 19.6 127.9 1000 35 3 Image Chart
2020 11 2 12 19.7 127.7 1002 35 3 Image Chart
2020 11 2 15 19.8 127.3 1002 35 3 Image Chart
2020 11 2 18 19.8 127.1 998 40 3 Image Chart
2020 11 2 21 19.9 127.1 998 40 3 Image Chart
2020 11 3 00 20.0 127.4 1000 40 3 Image Chart
2020 11 3 03 20.1 127.5 998 40 3 Image Chart
2020 11 3 06 20.1 127.7 998 40 3 Image Chart
2020 11 3 09 19.9 127.7 998 40 3 Image Chart
2020 11 3 12 19.7 128.2 998 40 3 Image Chart
2020 11 3 15 19.6 128.4 998 40 3 Image Chart
2020 11 3 18 19.5 128.7 998 40 3 Image Chart
2020 11 3 21 19.4 128.8 998 40 3 Image Chart
2020 11 4 00 19.8 129.2 998 40 3 Image Chart
2020 11 4 03 20.0 129.2 998 40 3 Image Chart
2020 11 4 06 20.3 129.0 994 45 3 Image Chart
2020 11 4 09 20.2 128.9 994 45 3 Image Chart
2020 11 4 12 20.2 128.7 994 50 4 Image Chart
2020 11 4 15 20.1 128.5 994 50 4 Image Chart
2020 11 4 18 20.0 128.2 994 50 4 Image Chart
2020 11 4 21 20.0 127.3 994 50 4 Image Chart
2020 11 5 00 19.9 126.7 994 50 4 Image Chart
2020 11 5 03 19.9 126.2 994 50 4 Image Chart
2020 11 5 06 20.0 125.5 994 50 4 Image Chart
2020 11 5 09 20.3 124.9 994 50 4 Image Chart
2020 11 5 12 20.7 124.2 994 50 4 Image Chart
2020 11 5 15 20.7 123.4 996 45 3 Image Chart
2020 11 5 18 20.6 123.0 994 50 4 Image Chart
2020 11 5 21 20.9 122.1 994 50 4 Image Chart
2020 11 6 00 21.1 121.9 996 50 4 Image Chart
2020 11 6 03 21.2 121.6 996 50 4 Image Chart
2020 11 6 06 21.3 120.9 996 50 4 Image Chart
2020 11 6 09 21.4 120.4 996 50 4 Image Chart
2020 11 6 12 21.8 120.2 998 45 3 Image Chart
2020 11 6 15 22.0 119.8 998 45 3 Image Chart
2020 11 6 18 22.3 119.7 1000 45 3 Image Chart
2020 11 6 21 22.5 119.6 1000 45 3 Image Chart
2020 11 7 00 22.6 119.5 1002 40 3 Image Chart
2020 11 7 03 22.6 119.3 1002 40 3 Image Chart
2020 11 7 06 22.7 119.2 1002 40 3 Image Chart
2020 11 7 09 22.8 118.9 1002 40 3 Image Chart
2020 11 7 12 22.0 118.0 1012 0 2 Image Chart
Japan Meteorological Agency Best Track Data | Correction Date : 2020-11-07
< Typhoon 202019 2020 Season Typhoon 202021 >

Help